createdAt,value
2022-07-31T00:00:31.653Z,100.00
2022-07-31T00:01:34.976Z,100.00
2022-07-31T00:02:38.268Z,100.00
2022-07-31T00:03:41.107Z,100.00
2022-07-31T00:04:44.233Z,100.00
2022-07-31T00:05:46.990Z,100.00
2022-07-31T00:06:50.273Z,100.00
2022-07-31T00:07:52.841Z,100.00
2022-07-31T00:08:55.410Z,100.00
2022-07-31T00:09:57.977Z,100.00
2022-07-31T00:11:01.153Z,100.00
2022-07-31T00:12:04.438Z,100.00
2022-07-31T00:13:07.008Z,100.00
2022-07-31T00:14:09.680Z,100.00
2022-07-31T00:15:12.346Z,100.00
2022-07-31T00:16:17.294Z,100.00
2022-07-31T00:17:20.206Z,100.00
2022-07-31T00:18:22.808Z,100.00
2022-07-31T00:19:25.484Z,100.00
2022-07-31T00:20:29.995Z,100.00
2022-07-31T00:21:32.658Z,100.00
2022-07-31T00:22:35.745Z,100.00
2022-07-31T00:23:38.746Z,100.00
2022-07-31T00:24:41.408Z,100.00
2022-07-31T00:25:43.951Z,100.00
2022-07-31T00:26:46.684Z,100.00
2022-07-31T00:27:51.240Z,100.00
2022-07-31T00:28:53.907Z,100.00
2022-07-31T00:29:56.596Z,100.00
2022-07-31T00:30:59.402Z,100.00
2022-07-31T00:32:02.026Z,100.00
2022-07-31T00:33:04.639Z,100.00
2022-07-31T00:34:07.252Z,100.00
2022-07-31T00:35:10.021Z,100.00
2022-07-31T00:36:16.272Z,100.00
2022-07-31T00:37:18.901Z,100.00
2022-07-31T00:38:28.579Z,100.00
2022-07-31T00:39:26.030Z,100.00
2022-07-31T00:40:29.099Z,100.00
2022-07-31T00:41:31.766Z,100.00
2022-07-31T00:42:34.341Z,100.00
2022-07-31T00:43:37.015Z,100.00
2022-07-31T00:44:39.552Z,100.00
2022-07-31T00:45:42.144Z,100.00
2022-07-31T00:46:46.852Z,100.00
2022-07-31T00:47:49.428Z,100.00
2022-07-31T00:48:53.821Z,100.00
2022-07-31T00:49:56.604Z,100.00
2022-07-31T00:50:59.515Z,100.00
2022-07-31T00:52:02.145Z,100.00
2022-07-31T00:53:04.711Z,100.00
2022-07-31T00:54:07.447Z,100.00
2022-07-31T00:55:10.053Z,100.00
2022-07-31T00:56:14.564Z,100.00
2022-07-31T00:57:17.042Z,100.00
2022-07-31T00:58:19.638Z,100.00
2022-07-31T00:59:24.866Z,100.00
2022-07-31T01:00:27.815Z,100.00
2022-07-31T01:01:30.772Z,100.00
2022-07-31T01:02:33.447Z,100.00
2022-07-31T01:03:36.013Z,100.00
2022-07-31T01:04:41.714Z,100.00
2022-07-31T01:05:43.190Z,100.00
2022-07-31T01:06:45.965Z,100.00
2022-07-31T01:07:48.532Z,100.00
2022-07-31T01:08:51.100Z,100.00
2022-07-31T01:09:54.897Z,100.00
2022-07-31T01:10:58.179Z,100.00
2022-07-31T01:12:00.851Z,100.00
2022-07-31T01:13:03.623Z,100.00
2022-07-31T01:14:06.183Z,100.00
2022-07-31T01:15:08.754Z,100.00
2022-07-31T01:16:11.832Z,100.00
2022-07-31T01:17:14.356Z,100.00
2022-07-31T01:18:16.986Z,100.00
2022-07-31T01:19:19.657Z,100.00
2022-07-31T01:20:24.045Z,100.00
2022-07-31T01:21:27.023Z,100.00
2022-07-31T01:22:33.338Z,100.00
2022-07-31T01:23:34.105Z,100.00
2022-07-31T01:24:36.667Z,100.00
2022-07-31T01:25:39.345Z,100.00
2022-07-31T01:26:42.215Z,100.00
2022-07-31T01:27:49.536Z,100.00
2022-07-31T01:28:49.257Z,100.00
2022-07-31T01:29:51.863Z,100.00
2022-07-31T01:31:10.707Z,100.00
2022-07-31T01:31:59.244Z,100.00
2022-07-31T01:33:01.935Z,100.00
2022-07-31T01:34:04.479Z,100.00
2022-07-31T01:35:07.046Z,100.00
2022-07-31T01:36:10.538Z,100.00
2022-07-31T01:37:13.102Z,100.00
2022-07-31T01:38:15.671Z,100.00
2022-07-31T01:39:18.235Z,100.00
2022-07-31T01:40:21.838Z,100.00
2022-07-31T01:41:24.455Z,100.00
2022-07-31T01:42:27.479Z,100.00
2022-07-31T01:43:30.151Z,100.00
2022-07-31T01:44:32.815Z,100.00
2022-07-31T01:45:35.380Z,100.00
2022-07-31T01:46:41.581Z,100.00
2022-07-31T01:47:42.726Z,100.00
2022-07-31T01:48:45.791Z,100.00
2022-07-31T01:49:48.620Z,100.00
2022-07-31T01:50:51.600Z,100.00
2022-07-31T01:51:54.883Z,100.00
2022-07-31T01:52:58.776Z,100.00
2022-07-31T01:54:01.371Z,100.00
2022-07-31T01:55:04.332Z,100.00
2022-07-31T01:56:07.086Z,100.00
2022-07-31T01:57:09.763Z,100.00
2022-07-31T01:58:12.323Z,100.00
2022-07-31T01:59:20.538Z,100.00
2022-07-31T02:00:34.402Z,100.00
2022-07-31T02:01:27.383Z,100.00
2022-07-31T02:02:30.483Z,100.00
2022-07-31T02:03:42.864Z,100.00
2022-07-31T02:04:37.970Z,100.00
2022-07-31T02:05:40.682Z,100.00
2022-07-31T02:06:43.515Z,100.00
2022-07-31T02:07:46.072Z,100.00
2022-07-31T02:08:48.611Z,100.00
2022-07-31T02:09:57.873Z,100.00
2022-07-31T02:10:56.028Z,100.00
2022-07-31T02:11:58.527Z,100.00
2022-07-31T02:13:01.060Z,100.00
2022-07-31T02:14:03.629Z,100.00
2022-07-31T02:15:06.296Z,100.00
2022-07-31T02:16:10.561Z,100.00
2022-07-31T02:17:13.038Z,100.00
2022-07-31T02:18:17.539Z,100.00
2022-07-31T02:19:20.163Z,100.00
2022-07-31T02:20:24.627Z,100.00
2022-07-31T02:21:27.429Z,100.00
2022-07-31T02:22:30.411Z,100.00
2022-07-31T02:23:33.039Z,100.00
2022-07-31T02:24:35.643Z,100.00
2022-07-31T02:25:38.212Z,100.00
2022-07-31T02:26:41.057Z,100.00
2022-07-31T02:27:57.460Z,100.00
2022-07-31T02:28:48.175Z,100.00
2022-07-31T02:29:50.799Z,100.00
2022-07-31T02:30:53.605Z,100.00
2022-07-31T02:32:01.876Z,100.00
2022-07-31T02:33:00.587Z,100.00
2022-07-31T02:34:03.253Z,100.00
2022-07-31T02:35:05.819Z,100.00
2022-07-31T02:36:09.202Z,100.00
2022-07-31T02:37:11.783Z,100.00
2022-07-31T02:38:17.142Z,100.00
2022-07-31T02:39:18.851Z,100.00
2022-07-31T02:40:23.159Z,100.00
2022-07-31T02:41:26.134Z,100.00
2022-07-31T02:42:29.417Z,100.00
2022-07-31T02:43:32.353Z,100.00
2022-07-31T02:44:35.046Z,100.00
2022-07-31T02:45:37.708Z,100.00
2022-07-31T02:46:40.707Z,100.00
2022-07-31T02:47:43.314Z,100.00
2022-07-31T02:48:45.841Z,100.00
2022-07-31T02:49:48.718Z,100.00
2022-07-31T02:50:51.650Z,100.00
2022-07-31T02:51:54.469Z,100.00
2022-07-31T02:52:57.646Z,100.00
2022-07-31T02:54:00.212Z,100.00
2022-07-31T02:55:03.092Z,100.00
2022-07-31T02:56:05.964Z,100.00
2022-07-31T02:57:08.614Z,99.80
2022-07-31T02:58:11.164Z,98.90
2022-07-31T02:59:13.763Z,98.75
2022-07-31T03:00:17.272Z,97.81
2022-07-31T03:01:20.259Z,97.41
2022-07-31T03:02:22.879Z,96.18
2022-07-31T03:03:27.391Z,95.08
2022-07-31T03:04:30.208Z,94.81
2022-07-31T03:05:32.786Z,96.21
2022-07-31T03:07:38.311Z,93.99
2022-07-31T03:08:41.276Z,95.90
2022-07-31T03:09:43.833Z,96.22
2022-07-31T03:10:46.709Z,97.13
2022-07-31T03:11:49.290Z,97.24
2022-07-31T03:12:51.984Z,99.91
2022-07-31T03:13:54.476Z,100.00
2022-07-31T03:14:57.284Z,100.00
2022-07-31T03:16:00.077Z,100.00
2022-07-31T03:17:02.724Z,100.00
2022-07-31T03:18:11.137Z,100.00
2022-07-31T03:19:09.827Z,100.00
2022-07-31T03:20:13.191Z,100.00
2022-07-31T03:21:16.173Z,100.00
2022-07-31T03:22:19.452Z,100.00
2022-07-31T03:23:22.119Z,100.00
2022-07-31T03:24:24.788Z,100.00
2022-07-31T03:25:27.356Z,100.00
2022-07-31T03:26:31.052Z,100.00
2022-07-31T03:27:35.564Z,100.00
2022-07-31T03:28:38.140Z,100.00
2022-07-31T03:29:43.253Z,100.00
2022-07-31T03:30:45.412Z,100.00
2022-07-31T03:31:47.981Z,100.00
2022-07-31T03:32:50.655Z,100.00
2022-07-31T03:33:53.623Z,100.00
2022-07-31T03:34:56.149Z,100.00
2022-07-31T03:35:58.784Z,100.00
2022-07-31T03:37:01.695Z,100.00
2022-07-31T03:38:39.684Z,100.00
2022-07-31T03:39:08.811Z,100.00
2022-07-31T03:40:12.248Z,100.00
2022-07-31T03:41:15.380Z,100.00
2022-07-31T03:42:18.842Z,100.00
2022-07-31T03:43:22.053Z,100.00
2022-07-31T03:44:24.617Z,100.00
2022-07-31T03:45:27.184Z,100.00
2022-07-31T03:46:30.368Z,100.00
2022-07-31T03:47:32.934Z,100.00
2022-07-31T03:48:35.601Z,100.00
2022-07-31T03:49:38.284Z,100.00
2022-07-31T03:50:41.386Z,100.00
2022-07-31T03:51:43.919Z,100.00
2022-07-31T03:52:46.444Z,100.00
2022-07-31T03:53:49.052Z,100.00
2022-07-31T03:54:51.621Z,100.00
2022-07-31T03:55:54.184Z,100.00
2022-07-31T03:56:57.372Z,100.00
2022-07-31T03:58:00.037Z,100.00
2022-07-31T03:59:02.611Z,100.00
2022-07-31T04:00:07.913Z,100.00
2022-07-31T04:01:12.344Z,100.00
2022-07-31T04:02:17.172Z,100.00
2022-07-31T04:03:19.836Z,100.00
2022-07-31T04:04:22.539Z,100.00
2022-07-31T04:05:25.184Z,100.00
2022-07-31T04:06:29.694Z,100.00
2022-07-31T04:07:33.332Z,100.00
2022-07-31T04:08:35.941Z,100.00
2022-07-31T04:09:38.601Z,100.00
2022-07-31T04:10:41.395Z,100.00
2022-07-31T04:11:43.908Z,100.00
2022-07-31T04:12:46.515Z,100.00
2022-07-31T04:13:49.084Z,100.00
2022-07-31T04:14:51.656Z,100.00
2022-07-31T04:15:54.323Z,100.00
2022-07-31T04:16:57.296Z,100.00
2022-07-31T04:17:59.866Z,100.00
2022-07-31T04:19:02.633Z,100.00
2022-07-31T04:20:05.879Z,100.00
2022-07-31T04:21:09.191Z,100.00
2022-07-31T04:22:11.772Z,100.00
2022-07-31T04:23:14.540Z,100.00
2022-07-31T04:24:17.516Z,100.00
2022-07-31T04:25:20.107Z,100.00
2022-07-31T04:26:26.258Z,100.00
2022-07-31T04:27:28.085Z,100.00
2022-07-31T04:28:30.654Z,100.00
2022-07-31T04:29:33.331Z,98.06
2022-07-31T04:30:37.806Z,98.77
2022-07-31T04:31:40.417Z,99.99
2022-07-31T04:32:43.069Z,97.11
2022-07-31T04:33:47.939Z,97.52
2022-07-31T04:34:50.155Z,98.10
2022-07-31T04:35:52.718Z,96.29
2022-07-31T04:38:05.733Z,97.56
2022-07-31T04:39:08.403Z,95.99
2022-07-31T04:40:11.992Z,95.58
2022-07-31T04:41:14.853Z,96.08
2022-07-31T04:42:17.717Z,94.71
2022-07-31T04:43:20.312Z,95.29
2022-07-31T04:44:22.880Z,94.34
2022-07-31T04:45:25.402Z,95.22
2022-07-31T04:46:29.879Z,92.87
2022-07-31T04:47:32.420Z,92.50
2022-07-31T04:48:35.045Z,93.00
2022-07-31T04:49:39.909Z,92.24
2022-07-31T04:50:42.872Z,90.10
2022-07-31T04:51:45.452Z,89.78
2022-07-31T04:52:48.020Z,89.53
2022-07-31T04:53:50.593Z,90.04
2022-07-31T04:54:53.265Z,91.08
2022-07-31T04:55:56.044Z,87.54
2022-07-31T04:57:00.543Z,90.78
2022-07-31T04:58:03.232Z,87.44
2022-07-31T04:59:05.893Z,85.71
2022-07-31T05:00:09.409Z,88.19
2022-07-31T05:01:12.430Z,85.78
2022-07-31T05:02:16.857Z,85.03
2022-07-31T05:03:19.641Z,85.82
2022-07-31T05:04:22.254Z,85.34
2022-07-31T05:05:25.172Z,84.32
2022-07-31T05:06:29.480Z,83.53
2022-07-31T05:07:32.143Z,82.80
2022-07-31T05:08:34.673Z,81.78
2022-07-31T05:09:37.224Z,82.19
2022-07-31T05:10:40.626Z,81.22
2022-07-31T05:11:43.232Z,81.53
2022-07-31T05:12:45.900Z,81.05
2022-07-31T05:13:48.468Z,81.82
2022-07-31T05:14:50.999Z,80.24
2022-07-31T05:15:53.604Z,79.64
2022-07-31T05:16:56.481Z,79.38
2022-07-31T05:17:59.247Z,78.27
2022-07-31T05:19:01.830Z,77.82
2022-07-31T05:20:04.794Z,77.25
2022-07-31T05:21:07.357Z,75.82
2022-07-31T05:22:10.494Z,74.80
2022-07-31T05:23:13.927Z,74.38
2022-07-31T05:24:16.492Z,71.61
2022-07-31T05:25:21.003Z,71.16
2022-07-31T05:26:25.416Z,73.96
2022-07-31T05:27:32.069Z,72.35
2022-07-31T05:28:32.555Z,70.87
2022-07-31T05:29:35.165Z,71.47
2022-07-31T05:30:38.553Z,73.52
2022-07-31T05:31:41.131Z,71.33
2022-07-31T05:32:45.656Z,72.15
2022-07-31T05:33:48.201Z,69.64
2022-07-31T05:34:50.731Z,70.36
2022-07-31T05:35:54.049Z,67.12
2022-07-31T05:36:57.026Z,67.99
2022-07-31T05:37:59.653Z,68.34
2022-07-31T05:39:02.215Z,68.60
2022-07-31T05:40:05.953Z,65.77
2022-07-31T05:41:09.131Z,68.07
2022-07-31T05:42:12.522Z,65.53
2022-07-31T05:43:15.454Z,67.58
2022-07-31T05:44:18.164Z,69.26
2022-07-31T05:45:20.733Z,69.69
2022-07-31T05:46:25.036Z,68.50
2022-07-31T05:47:40.680Z,69.92
2022-07-31T05:48:32.120Z,71.16
2022-07-31T05:49:34.780Z,69.96
2022-07-31T05:50:37.563Z,67.30
2022-07-31T05:51:40.201Z,68.29
2022-07-31T05:52:42.807Z,69.32
2022-07-31T05:53:45.879Z,69.50
2022-07-31T05:54:48.848Z,68.55
2022-07-31T05:55:51.428Z,70.31
2022-07-31T05:56:54.187Z,69.32
2022-07-31T05:57:56.781Z,68.65
2022-07-31T05:58:59.320Z,69.30
2022-07-31T06:00:03.880Z,67.72
2022-07-31T06:01:06.436Z,65.94
2022-07-31T06:02:09.453Z,65.54
2022-07-31T06:03:12.663Z,66.88
2022-07-31T06:04:15.332Z,64.53
2022-07-31T06:05:17.858Z,64.30
2022-07-31T06:06:21.003Z,64.63
2022-07-31T06:07:23.549Z,64.06
2022-07-31T06:08:26.361Z,65.30
2022-07-31T06:09:28.984Z,65.21
2022-07-31T06:10:32.273Z,64.36
2022-07-31T06:11:34.895Z,63.14
2022-07-31T06:12:37.504Z,62.31
2022-07-31T06:13:40.067Z,61.17
2022-07-31T06:14:42.638Z,61.09
2022-07-31T06:15:49.458Z,61.43
2022-07-31T06:16:50.138Z,61.01
2022-07-31T06:17:52.796Z,62.85
2022-07-31T06:18:55.464Z,61.47
2022-07-31T06:19:58.137Z,62.45
2022-07-31T06:21:00.970Z,62.59
2022-07-31T06:22:04.032Z,59.30
2022-07-31T06:23:22.448Z,59.18
2022-07-31T06:24:11.535Z,61.01
2022-07-31T06:25:16.093Z,60.49
2022-07-31T06:26:20.495Z,60.01
2022-07-31T06:27:33.794Z,60.88
2022-07-31T06:28:44.752Z,61.86
2022-07-31T06:29:40.987Z,59.87
2022-07-31T06:30:39.584Z,58.71
2022-07-31T06:31:42.239Z,60.17
2022-07-31T06:32:44.807Z,58.27
2022-07-31T06:33:48.437Z,57.60
2022-07-31T06:34:51.479Z,58.39
2022-07-31T06:35:54.049Z,57.93
2022-07-31T06:36:57.020Z,58.81
2022-07-31T06:37:59.710Z,58.56
2022-07-31T06:39:02.258Z,57.32
2022-07-31T06:40:05.132Z,59.56
2022-07-31T06:41:07.800Z,60.35
2022-07-31T06:42:10.368Z,58.10
2022-07-31T06:43:12.932Z,57.42
2022-07-31T06:44:15.809Z,55.96
2022-07-31T06:45:35.530Z,55.05
2022-07-31T06:46:23.421Z,56.84
2022-07-31T06:47:26.482Z,56.44
2022-07-31T06:48:29.148Z,56.27
2022-07-31T06:49:31.727Z,57.36
2022-07-31T06:50:35.508Z,57.03
2022-07-31T06:51:38.079Z,55.97
2022-07-31T06:52:40.643Z,56.71
2022-07-31T06:53:43.320Z,54.75
2022-07-31T06:54:45.879Z,54.97
2022-07-31T06:55:48.446Z,55.36
2022-07-31T06:56:51.216Z,55.92
2022-07-31T06:57:53.782Z,56.71
2022-07-31T06:58:56.355Z,57.66
2022-07-31T06:59:59.018Z,56.98
2022-07-31T07:01:01.986Z,54.72
2022-07-31T07:02:05.221Z,56.07
2022-07-31T07:03:08.068Z,56.66
2022-07-31T07:04:10.927Z,56.87
2022-07-31T07:05:13.492Z,55.69
2022-07-31T07:06:16.779Z,55.07
2022-07-31T07:07:19.352Z,55.87
2022-07-31T07:08:21.867Z,55.49
2022-07-31T07:09:24.476Z,55.43
2022-07-31T07:10:27.759Z,55.22
2022-07-31T07:11:30.325Z,54.39
2022-07-31T07:12:32.894Z,53.48
2022-07-31T07:13:45.263Z,55.77
2022-07-31T07:14:41.815Z,54.68
2022-07-31T07:15:44.507Z,55.51
2022-07-31T07:16:47.157Z,55.18
2022-07-31T07:17:49.739Z,52.10
2022-07-31T07:18:52.410Z,53.83
2022-07-31T07:19:55.849Z,52.28
2022-07-31T07:20:59.100Z,52.50
2022-07-31T07:22:02.406Z,51.90
2022-07-31T07:23:05.533Z,52.44
2022-07-31T07:24:08.153Z,53.75
2022-07-31T07:25:10.721Z,51.17
2022-07-31T07:26:13.742Z,49.35
2022-07-31T07:27:16.411Z,50.43
2022-07-31T07:28:30.582Z,53.00
2022-07-31T07:29:23.489Z,52.87
2022-07-31T07:30:27.900Z,52.44
2022-07-31T07:31:30.487Z,53.71
2022-07-31T07:32:33.031Z,52.77
2022-07-31T07:33:41.044Z,52.29
2022-07-31T07:34:40.111Z,51.91
2022-07-31T07:35:42.679Z,51.04
2022-07-31T07:36:45.553Z,48.90
2022-07-31T07:37:48.134Z,50.20
2022-07-31T07:38:50.835Z,50.83
2022-07-31T07:39:54.176Z,48.53
2022-07-31T07:40:57.156Z,47.77
2022-07-31T07:41:59.729Z,47.25
2022-07-31T07:43:03.369Z,47.63
2022-07-31T07:44:06.085Z,47.57
2022-07-31T07:45:08.649Z,46.67
2022-07-31T07:46:11.759Z,46.10
2022-07-31T07:47:14.297Z,47.39
2022-07-31T07:48:16.862Z,48.64
2022-07-31T07:49:20.066Z,49.08
2022-07-31T07:50:26.771Z,47.17
2022-07-31T07:51:28.149Z,47.52
2022-07-31T07:52:30.817Z,48.46
2022-07-31T07:53:33.383Z,49.19
2022-07-31T07:54:35.893Z,49.07
2022-07-31T07:55:38.474Z,47.53
2022-07-31T07:56:41.508Z,48.38
2022-07-31T07:57:44.168Z,48.78
2022-07-31T07:58:46.791Z,50.33
2022-07-31T07:59:49.621Z,50.85
2022-07-31T08:00:52.531Z,51.02
2022-07-31T08:01:55.449Z,51.08
2022-07-31T08:03:47.071Z,50.40
2022-07-31T08:04:02.500Z,51.37
2022-07-31T08:05:05.012Z,51.34
2022-07-31T08:06:08.284Z,50.81
2022-07-31T08:07:12.788Z,50.54
2022-07-31T08:08:15.355Z,51.81
2022-07-31T08:09:17.936Z,50.70
2022-07-31T08:10:22.343Z,51.79
2022-07-31T08:11:24.900Z,50.41
2022-07-31T08:12:27.477Z,48.32
2022-07-31T08:13:30.047Z,50.19
2022-07-31T08:14:32.611Z,49.49
2022-07-31T08:15:35.269Z,50.74
2022-07-31T08:16:38.039Z,47.60
2022-07-31T08:17:40.621Z,47.81
2022-07-31T08:18:44.976Z,47.21
2022-07-31T08:19:51.167Z,47.22
2022-07-31T08:20:52.096Z,47.66
2022-07-31T08:21:54.983Z,45.89
2022-07-31T08:22:58.048Z,43.13
2022-07-31T08:24:01.025Z,44.69
2022-07-31T08:25:05.329Z,42.27
2022-07-31T08:26:09.460Z,41.00
2022-07-31T08:27:12.154Z,41.47
2022-07-31T08:28:19.298Z,41.07
2022-07-31T08:29:26.541Z,39.43
2022-07-31T08:30:30.700Z,40.72
2022-07-31T08:31:30.682Z,37.83
2022-07-31T08:32:33.241Z,40.12
2022-07-31T08:33:35.863Z,38.93
2022-07-31T08:34:41.840Z,38.84
2022-07-31T08:35:44.800Z,38.11
2022-07-31T08:36:47.722Z,39.00
2022-07-31T08:37:52.310Z,39.83
2022-07-31T08:38:54.782Z,41.22
2022-07-31T08:39:57.346Z,40.71
2022-07-31T08:41:00.325Z,41.36
2022-07-31T08:42:04.146Z,39.34
2022-07-31T08:43:07.466Z,40.88
2022-07-31T08:44:12.019Z,41.50
2022-07-31T08:45:14.543Z,41.12
2022-07-31T08:46:17.625Z,39.96
2022-07-31T08:47:20.235Z,39.47
2022-07-31T08:48:22.903Z,39.06
2022-07-31T08:49:25.529Z,39.62
2022-07-31T08:50:30.182Z,39.17
2022-07-31T08:51:34.493Z,40.22
2022-07-31T08:52:38.903Z,40.42
2022-07-31T08:53:41.471Z,40.44
2022-07-31T08:54:44.042Z,40.04
2022-07-31T08:55:55.082Z,40.25
2022-07-31T08:56:51.451Z,39.95
2022-07-31T08:57:54.360Z,41.77
2022-07-31T08:58:56.968Z,40.80
2022-07-31T08:59:59.642Z,40.35
2022-07-31T09:01:02.373Z,39.25
2022-07-31T09:02:05.640Z,39.26
2022-07-31T09:03:08.674Z,39.56
2022-07-31T09:04:11.189Z,39.63
2022-07-31T09:05:13.909Z,40.27
2022-07-31T09:06:18.312Z,40.29
2022-07-31T09:07:20.902Z,39.55
2022-07-31T09:08:23.865Z,40.47
2022-07-31T09:09:50.771Z,42.65
2022-07-31T09:10:31.751Z,41.36
2022-07-31T09:11:34.428Z,41.32
2022-07-31T09:12:37.016Z,40.50
2022-07-31T09:13:39.559Z,39.82
2022-07-31T09:14:42.124Z,39.56
2022-07-31T09:15:44.810Z,38.87
2022-07-31T09:16:47.727Z,39.83
2022-07-31T09:17:51.944Z,38.24
2022-07-31T09:18:54.856Z,38.44
2022-07-31T09:19:57.520Z,38.74
2022-07-31T09:21:00.536Z,39.39
2022-07-31T09:22:10.148Z,39.41
2022-07-31T09:23:09.519Z,39.33
2022-07-31T09:24:12.189Z,39.02
2022-07-31T09:25:14.856Z,38.73
2022-07-31T09:26:19.295Z,40.09
2022-07-31T09:27:21.935Z,38.21
2022-07-31T09:28:25.283Z,38.51
2022-07-31T09:29:27.991Z,40.47
2022-07-31T09:30:31.277Z,38.37
2022-07-31T09:31:33.907Z,39.18
2022-07-31T09:32:36.511Z,39.62
2022-07-31T09:33:43.672Z,37.66
2022-07-31T09:34:43.727Z,37.45
2022-07-31T09:35:46.260Z,36.94
2022-07-31T09:36:49.132Z,37.68
2022-07-31T09:37:51.904Z,37.64
2022-07-31T09:38:54.471Z,37.24
2022-07-31T09:39:57.186Z,38.26
2022-07-31T09:41:00.628Z,38.52
2022-07-31T09:42:16.463Z,39.01
2022-07-31T09:43:09.657Z,39.16
2022-07-31T09:44:12.737Z,40.11
2022-07-31T09:45:15.407Z,40.67
2022-07-31T09:46:18.576Z,40.43
2022-07-31T09:47:21.251Z,40.61
2022-07-31T09:48:26.260Z,42.06
2022-07-31T09:49:28.374Z,40.45
2022-07-31T09:50:32.337Z,40.62
2022-07-31T09:51:35.001Z,40.01
2022-07-31T09:52:37.689Z,39.67
2022-07-31T09:53:43.351Z,40.13
2022-07-31T09:54:44.811Z,38.85
2022-07-31T09:55:47.623Z,39.20
2022-07-31T09:56:50.404Z,39.03
2022-07-31T09:57:53.232Z,39.00
2022-07-31T09:58:55.839Z,39.88
2022-07-31T09:59:58.361Z,37.87
2022-07-31T10:01:01.306Z,37.64
2022-07-31T10:02:04.260Z,39.44
2022-07-31T10:03:07.233Z,39.47
2022-07-31T10:04:09.900Z,39.03
2022-07-31T10:05:12.473Z,38.95
2022-07-31T10:06:16.647Z,37.86
2022-07-31T10:07:32.004Z,36.64
2022-07-31T10:08:23.956Z,36.45
2022-07-31T10:09:26.481Z,35.75
2022-07-31T10:10:29.911Z,36.96
2022-07-31T10:11:32.579Z,35.49
2022-07-31T10:12:35.150Z,35.39
2022-07-31T10:13:42.352Z,35.09
2022-07-31T10:14:42.428Z,34.51
2022-07-31T10:15:45.059Z,34.64
2022-07-31T10:16:48.047Z,35.44
2022-07-31T10:17:50.727Z,34.70
2022-07-31T10:18:53.312Z,36.81
2022-07-31T10:19:55.880Z,36.50
2022-07-31T10:20:59.066Z,36.33
2022-07-31T10:22:03.777Z,35.45
2022-07-31T10:23:06.552Z,36.39
2022-07-31T10:24:09.484Z,36.38
2022-07-31T10:25:12.236Z,37.00
2022-07-31T10:26:16.099Z,35.37
2022-07-31T10:27:18.777Z,35.60
2022-07-31T10:28:22.308Z,36.16
2022-07-31T10:29:24.919Z,36.51
2022-07-31T10:30:28.777Z,34.53
2022-07-31T10:31:31.592Z,36.53
2022-07-31T10:32:34.121Z,37.64
2022-07-31T10:33:44.991Z,36.35
2022-07-31T10:34:41.256Z,36.62
2022-07-31T10:35:43.834Z,38.68
2022-07-31T10:36:48.668Z,38.26
2022-07-31T10:37:51.402Z,37.87
2022-07-31T10:38:54.062Z,38.10
2022-07-31T10:39:56.744Z,37.69
2022-07-31T10:40:59.616Z,37.62
2022-07-31T10:42:02.283Z,37.37
2022-07-31T10:43:05.357Z,37.21
2022-07-31T10:44:07.938Z,37.47
2022-07-31T10:45:10.694Z,37.63
2022-07-31T10:46:13.463Z,37.93
2022-07-31T10:47:16.240Z,35.45
2022-07-31T10:48:18.904Z,37.92
2022-07-31T10:49:21.519Z,37.78
2022-07-31T10:50:24.407Z,36.45
2022-07-31T10:51:26.972Z,36.53
2022-07-31T10:52:29.481Z,36.29
2022-07-31T10:53:50.311Z,36.31
2022-07-31T10:54:36.564Z,36.26
2022-07-31T10:55:39.187Z,35.72
2022-07-31T10:56:42.717Z,36.73
2022-07-31T10:57:56.290Z,34.88
2022-07-31T10:58:49.796Z,35.86
2022-07-31T10:59:52.364Z,36.06
2022-07-31T11:00:55.258Z,33.81
2022-07-31T11:01:58.419Z,35.48
2022-07-31T11:03:01.495Z,34.89
2022-07-31T11:04:04.498Z,34.85
2022-07-31T11:05:07.140Z,35.75
2022-07-31T11:06:10.392Z,36.92
2022-07-31T11:07:12.993Z,36.46
2022-07-31T11:08:15.518Z,36.30
2022-07-31T11:09:18.129Z,36.51
2022-07-31T11:10:21.718Z,38.01
2022-07-31T11:11:26.255Z,38.06
2022-07-31T11:12:28.800Z,38.44
2022-07-31T11:13:34.124Z,40.21
2022-07-31T11:14:36.003Z,40.23
2022-07-31T11:15:38.477Z,41.10
2022-07-31T11:16:42.138Z,41.09
2022-07-31T11:18:25.332Z,40.74
2022-07-31T11:18:49.334Z,41.29
2022-07-31T11:19:51.918Z,40.33
2022-07-31T11:20:54.868Z,40.36
2022-07-31T11:21:58.147Z,40.18
2022-07-31T11:23:02.603Z,39.54
2022-07-31T11:24:08.706Z,39.30
2022-07-31T11:25:09.535Z,39.46
2022-07-31T11:26:13.119Z,38.92
2022-07-31T11:27:15.687Z,39.20
2022-07-31T11:28:18.356Z,40.83
2022-07-31T11:30:02.079Z,40.22
2022-07-31T11:30:27.381Z,40.14
2022-07-31T11:31:29.983Z,40.02
2022-07-31T11:32:32.477Z,39.74
2022-07-31T11:33:41.906Z,40.85
2022-07-31T11:34:39.903Z,41.42
2022-07-31T11:35:42.476Z,41.10
2022-07-31T11:36:50.726Z,41.73
2022-07-31T11:37:57.949Z,41.99
2022-07-31T11:38:54.369Z,41.35
2022-07-31T11:39:56.935Z,40.52
2022-07-31T11:41:00.016Z,40.22
2022-07-31T11:42:03.299Z,40.67
2022-07-31T11:43:25.411Z,41.07
2022-07-31T11:44:10.786Z,40.48
2022-07-31T11:45:13.355Z,41.20
2022-07-31T11:46:16.353Z,39.47
2022-07-31T11:48:10.063Z,40.15
2022-07-31T11:48:27.194Z,40.62
2022-07-31T11:49:44.125Z,39.84
2022-07-31T11:50:33.824Z,39.99
2022-07-31T11:51:36.847Z,39.00
2022-07-31T11:52:39.590Z,39.44
2022-07-31T11:53:42.489Z,39.87
2022-07-31T11:54:45.056Z,39.35
2022-07-31T11:55:47.579Z,38.68
2022-07-31T11:56:50.495Z,38.12
2022-07-31T11:57:53.165Z,38.05
2022-07-31T11:58:55.736Z,38.40
2022-07-31T11:59:58.306Z,38.42
2022-07-31T12:01:01.790Z,39.34
2022-07-31T12:02:04.915Z,40.71
2022-07-31T12:03:07.519Z,40.87
2022-07-31T12:04:10.458Z,41.56
2022-07-31T12:05:13.108Z,42.01
2022-07-31T12:06:16.054Z,40.96
2022-07-31T12:07:18.724Z,40.10
2022-07-31T12:08:21.396Z,39.55
2022-07-31T12:10:00.754Z,37.98
2022-07-31T12:10:30.213Z,38.75
2022-07-31T12:11:32.784Z,36.79
2022-07-31T12:12:35.557Z,37.60
2022-07-31T12:13:38.093Z,37.09
2022-07-31T12:14:41.413Z,37.03
2022-07-31T12:15:44.080Z,38.25
2022-07-31T12:16:47.050Z,39.14
2022-07-31T12:17:49.651Z,38.01
2022-07-31T12:18:52.182Z,39.96
2022-07-31T12:19:57.837Z,39.02
2022-07-31T12:20:59.322Z,39.50
2022-07-31T12:22:01.932Z,40.25
2022-07-31T12:23:04.599Z,38.62
2022-07-31T12:24:07.167Z,39.21
2022-07-31T12:25:09.795Z,39.22
2022-07-31T12:26:13.122Z,38.50
2022-07-31T12:27:15.891Z,37.69
2022-07-31T12:28:18.459Z,37.63
2022-07-31T12:29:20.939Z,38.57
2022-07-31T12:30:29.675Z,38.58
2022-07-31T12:31:29.226Z,38.43
2022-07-31T12:32:31.757Z,37.46
2022-07-31T12:33:34.375Z,37.72
2022-07-31T12:34:37.343Z,37.91
2022-07-31T12:35:55.669Z,38.21
2022-07-31T12:36:44.684Z,38.78
2022-07-31T12:37:47.838Z,39.17
2022-07-31T12:38:50.474Z,40.26
2022-07-31T12:40:00.299Z,40.17
2022-07-31T12:40:57.971Z,39.05
2022-07-31T12:42:00.670Z,39.12
2022-07-31T12:43:03.507Z,37.81
2022-07-31T12:44:06.280Z,37.55
2022-07-31T12:45:19.168Z,38.71
2022-07-31T12:46:16.147Z,39.32
2022-07-31T12:47:18.629Z,36.91
2022-07-31T12:48:21.259Z,37.34
2022-07-31T12:49:23.955Z,38.34
2022-07-31T12:50:28.468Z,38.68
2022-07-31T12:51:45.330Z,37.53
2022-07-31T12:52:35.623Z,38.54
2022-07-31T12:53:38.295Z,38.29
2022-07-31T12:54:40.925Z,39.07
2022-07-31T12:55:43.525Z,40.68
2022-07-31T12:56:46.260Z,38.66
2022-07-31T12:57:50.989Z,38.87
2022-07-31T12:58:53.274Z,37.97
2022-07-31T12:59:55.798Z,37.91
2022-07-31T13:00:58.818Z,38.18
2022-07-31T13:02:01.544Z,38.25
2022-07-31T13:03:04.768Z,38.91
2022-07-31T13:04:07.728Z,38.03
2022-07-31T13:05:11.271Z,37.41
2022-07-31T13:06:14.621Z,38.20
2022-07-31T13:07:17.555Z,39.69
2022-07-31T13:08:21.148Z,39.23
2022-07-31T13:09:23.858Z,39.56
2022-07-31T13:10:31.980Z,38.43
2022-07-31T13:11:46.259Z,39.72
2022-07-31T13:12:37.496Z,39.70
2022-07-31T13:13:40.105Z,38.71
2022-07-31T13:14:42.636Z,38.60
2022-07-31T13:15:45.816Z,39.28
2022-07-31T13:16:48.734Z,39.07
2022-07-31T13:17:51.674Z,39.44
2022-07-31T13:18:54.233Z,38.48
2022-07-31T13:19:56.903Z,39.25
2022-07-31T13:20:59.693Z,38.14
2022-07-31T13:22:02.679Z,37.88
2022-07-31T13:23:05.447Z,36.46
2022-07-31T13:24:08.082Z,37.67
2022-07-31T13:25:11.312Z,37.19
2022-07-31T13:26:14.173Z,37.01